Terminal Aerodrome Forecast
Issued by NWS Memphis, TN

Current Version | Previous Version | Text Only | Print | Product List | Glossary On
Versions: 1 2 3 4 5 6 7 8 9 10 11 12 13 14 15 16 17 18 19 20 21 22 23 24 25 26 27 28
000
FTUS44 KMEG 240405 AAB
TAFMEM
TAF AMD
KMEM 240405Z 2404/2424 24005KT P6SM TS BKN040CB BKN100 BKN250
     FM240500 VRB03KT P6SM BKN100 BKN200
     FM241800 19005KT P6SM VCTS SCT035CB BKN250=

USA.gov is the U.S. government's official web portal to all federal, state and local government web resources and services.